createdAt,value
2018-04-29T00:00:44.709Z,35.20
2018-04-29T00:02:16.523Z,34.90
2018-04-29T00:03:48.339Z,32.50
2018-04-29T00:05:20.156Z,31.20
2018-04-29T00:06:51.972Z,33.10
2018-04-29T00:08:23.788Z,31.30
2018-04-29T00:09:55.603Z,32.00
2018-04-29T00:11:27.519Z,33.60
2018-04-29T00:12:59.232Z,32.80
2018-04-29T00:14:31.048Z,33.20
2018-04-29T00:16:02.865Z,33.10
2018-04-29T00:17:34.931Z,33.30
2018-04-29T00:19:06.496Z,36.30
2018-04-29T00:20:38.311Z,32.90
2018-04-29T00:22:10.126Z,34.10
2018-04-29T00:23:41.946Z,36.60
2018-04-29T00:25:13.757Z,36.90
2018-04-29T00:26:45.572Z,33.50
2018-04-29T00:28:17.387Z,33.90
2018-04-29T00:29:49.312Z,34.40
2018-04-29T00:31:21.021Z,32.90
2018-04-29T00:32:52.844Z,32.60
2018-04-29T00:34:24.651Z,33.80
2018-04-29T00:35:56.466Z,34.00
2018-04-29T00:37:28.279Z,35.60
2018-04-29T00:39:00.096Z,35.20
2018-04-29T00:40:31.911Z,34.90
2018-04-29T00:42:03.725Z,33.10
2018-04-29T00:43:35.546Z,33.50
2018-04-29T00:45:07.357Z,35.90
2018-04-29T00:46:39.171Z,34.90
2018-04-29T00:48:11.088Z,34.50
2018-04-29T00:49:42.802Z,36.50
2018-04-29T00:51:14.617Z,36.30
2018-04-29T00:52:46.433Z,36.70
2018-04-29T00:54:18.247Z,37.10
2018-04-29T00:55:50.064Z,37.80
2018-04-29T00:57:21.878Z,37.90
2018-04-29T00:58:53.694Z,36.30
2018-04-29T01:00:25.512Z,37.20
2018-04-29T01:01:57.324Z,36.30
2018-04-29T01:03:29.145Z,35.30
2018-04-29T01:05:00.958Z,38.00
2018-04-29T01:06:32.871Z,35.60
2018-04-29T01:08:04.587Z,36.70
2018-04-29T01:09:36.400Z,37.00
2018-04-29T01:11:08.216Z,38.60
2018-04-29T01:12:40.031Z,35.10
2018-04-29T01:14:11.852Z,32.90
2018-04-29T01:15:43.661Z,31.90
2018-04-29T01:17:15.478Z,32.20
2018-04-29T01:18:47.542Z,31.60
2018-04-29T01:20:19.108Z,32.00
2018-04-29T01:21:50.923Z,32.00
2018-04-29T01:23:22.739Z,32.50
2018-04-29T01:24:54.654Z,29.50
2018-04-29T01:26:26.368Z,29.50
2018-04-29T01:27:58.184Z,28.50
2018-04-29T01:29:30.000Z,29.00
2018-04-29T01:31:01.815Z,29.00
2018-04-29T01:32:33.632Z,30.40
2018-04-29T01:34:05.448Z,30.80
2018-04-29T01:35:37.261Z,28.10
2018-04-29T01:37:09.077Z,30.40
2018-04-29T01:38:40.896Z,29.60
2018-04-29T01:40:12.708Z,29.50
2018-04-29T01:41:44.547Z,29.30
2018-04-29T01:43:16.641Z,28.90
2018-04-29T01:44:48.157Z,29.10
2018-04-29T01:46:19.971Z,28.70
2018-04-29T01:47:51.787Z,30.40
2018-04-29T01:49:23.855Z,28.20
2018-04-29T01:50:55.441Z,29.30
2018-04-29T01:52:27.234Z,27.90
2018-04-29T01:53:59.050Z,28.00
2018-04-29T01:55:30.865Z,28.80
2018-04-29T01:57:02.680Z,27.90
2018-04-29T01:58:34.496Z,31.00
2018-04-29T02:00:06.312Z,30.50
2018-04-29T02:01:38.227Z,31.10
2018-04-29T02:03:09.944Z,30.20
2018-04-29T02:04:41.758Z,29.30
2018-04-29T02:06:13.574Z,30.50
2018-04-29T02:07:45.389Z,30.20
2018-04-29T02:09:17.205Z,31.60
2018-04-29T02:10:49.020Z,30.90
2018-04-29T02:12:20.834Z,33.70
2018-04-29T02:13:52.649Z,32.10
2018-04-29T02:15:24.466Z,32.10
2018-04-29T02:16:56.281Z,32.60
2018-04-29T02:18:28.096Z,33.80
2018-04-29T02:20:00.311Z,32.80
2018-04-29T02:21:31.725Z,34.30
2018-04-29T02:23:03.541Z,32.80
2018-04-29T02:24:35.358Z,34.90
2018-04-29T02:26:07.172Z,34.50
2018-04-29T02:27:38.988Z,40.20
2018-04-29T02:29:10.801Z,41.90
2018-04-29T02:30:42.617Z,43.70
2018-04-29T02:32:14.433Z,40.60
2018-04-29T02:33:46.281Z,39.60
2018-04-29T02:35:18.062Z,37.90
2018-04-29T02:36:49.878Z,41.50
2018-04-29T02:38:22.243Z,40.70
2018-04-29T02:39:53.508Z,40.70
2018-04-29T02:41:25.321Z,38.80
2018-04-29T02:42:57.145Z,38.10
2018-04-29T02:44:28.952Z,40.40
2018-04-29T02:46:00.768Z,39.40
2018-04-29T02:47:32.588Z,39.30
2018-04-29T02:49:04.396Z,38.40
2018-04-29T02:50:36.467Z,37.40
2018-04-29T02:52:08.029Z,37.90
2018-04-29T02:53:39.841Z,40.80
2018-04-29T02:55:11.656Z,45.80
2018-04-29T02:56:43.571Z,46.10
2018-04-29T02:58:15.285Z,45.70
2018-04-29T02:59:47.103Z,44.40
2018-04-29T03:01:18.913Z,43.60
2018-04-29T03:02:50.728Z,43.40
2018-04-29T03:04:22.543Z,46.10
2018-04-29T03:05:54.359Z,49.00
2018-04-29T03:07:26.171Z,50.70
2018-04-29T03:08:57.986Z,49.70
2018-04-29T03:10:29.800Z,48.00
2018-04-29T03:12:01.620Z,49.60
2018-04-29T03:13:33.427Z,47.10
2018-04-29T03:15:05.342Z,46.90
2018-04-29T03:16:37.056Z,47.10
2018-04-29T03:18:08.870Z,50.10
2018-04-29T03:19:40.684Z,48.90
2018-04-29T03:21:12.750Z,49.20
2018-04-29T03:22:44.314Z,46.60
2018-04-29T03:24:16.126Z,48.00
2018-04-29T03:25:47.942Z,49.20
2018-04-29T03:27:19.759Z,47.90
2018-04-29T03:28:51.569Z,48.20
2018-04-29T03:30:23.383Z,48.40
2018-04-29T03:31:55.197Z,50.00
2018-04-29T03:33:27.109Z,50.80
2018-04-29T03:34:58.824Z,52.60
2018-04-29T03:36:30.638Z,50.00
2018-04-29T03:38:02.452Z,50.20
2018-04-29T03:39:34.267Z,52.80
2018-04-29T03:41:06.120Z,50.50
2018-04-29T03:42:37.894Z,52.70
2018-04-29T03:44:09.708Z,53.60
2018-04-29T03:45:41.520Z,51.30
2018-04-29T03:47:13.335Z,49.60
2018-04-29T03:48:45.147Z,47.00
2018-04-29T03:50:16.962Z,48.20
2018-04-29T03:51:49.127Z,48.10
2018-04-29T03:53:20.590Z,47.40
2018-04-29T03:54:52.404Z,47.30
2018-04-29T03:56:24.218Z,49.00
2018-04-29T03:57:56.033Z,45.40
2018-04-29T03:59:27.844Z,47.00
2018-04-29T04:00:59.659Z,44.50
2018-04-29T04:02:31.544Z,46.70
2018-04-29T04:04:03.285Z,46.40
2018-04-29T04:05:35.100Z,49.60
2018-04-29T04:07:06.913Z,48.70
2018-04-29T04:08:38.725Z,48.40
2018-04-29T04:10:10.639Z,50.30
2018-04-29T04:11:42.353Z,48.60
2018-04-29T04:13:14.166Z,52.50
2018-04-29T04:14:45.979Z,49.70
2018-04-29T04:16:17.793Z,48.70
2018-04-29T04:17:49.607Z,51.80
2018-04-29T04:19:21.420Z,50.70
2018-04-29T04:20:53.234Z,53.80
2018-04-29T04:22:25.048Z,55.70
2018-04-29T04:23:56.861Z,54.30
2018-04-29T04:25:28.674Z,56.50
2018-04-29T04:27:00.489Z,54.30
2018-04-29T04:28:32.403Z,54.50
2018-04-29T04:30:04.116Z,55.30
2018-04-29T04:31:35.931Z,56.60
2018-04-29T04:33:07.748Z,54.80
2018-04-29T04:34:39.557Z,62.30
2018-04-29T04:36:11.370Z,58.30
2018-04-29T04:37:43.184Z,56.60
2018-04-29T04:39:14.997Z,53.90
2018-04-29T04:40:46.812Z,51.90
2018-04-29T04:42:18.625Z,55.90
2018-04-29T04:43:50.439Z,52.30
2018-04-29T04:45:22.252Z,55.00
2018-04-29T04:46:54.165Z,53.70
2018-04-29T04:48:25.878Z,55.10
2018-04-29T04:49:57.693Z,53.00
2018-04-29T04:51:29.505Z,52.80
2018-04-29T04:53:01.570Z,52.20
2018-04-29T04:54:33.132Z,54.60
2018-04-29T04:56:04.947Z,54.80
2018-04-29T04:57:36.759Z,54.80
2018-04-29T04:59:08.575Z,55.10
2018-04-29T05:00:40.387Z,55.50
2018-04-29T05:02:12.229Z,57.00
2018-04-29T05:03:44.046Z,56.30
2018-04-29T05:05:15.956Z,58.00
2018-04-29T05:06:47.670Z,58.30
2018-04-29T05:08:19.482Z,56.20
2018-04-29T05:09:51.297Z,61.20
2018-04-29T05:11:23.110Z,65.70
2018-04-29T05:12:54.922Z,63.60
2018-04-29T05:14:26.736Z,63.30
2018-04-29T05:15:58.549Z,63.80
2018-04-29T05:17:30.514Z,60.00
2018-04-29T05:19:02.176Z,56.20
2018-04-29T05:20:33.989Z,55.80
2018-04-29T05:22:05.891Z,55.50
2018-04-29T05:23:37.967Z,55.50
2018-04-29T05:25:09.429Z,53.00
2018-04-29T05:26:41.243Z,54.90
2018-04-29T05:28:13.056Z,50.50
2018-04-29T05:29:44.869Z,60.10
2018-04-29T05:31:16.689Z,56.30
2018-04-29T05:32:48.496Z,53.10
2018-04-29T05:34:20.308Z,55.40
2018-04-29T05:35:52.121Z,53.70
2018-04-29T05:37:23.941Z,54.90
2018-04-29T05:38:55.748Z,58.50
2018-04-29T05:40:27.562Z,63.40
2018-04-29T05:41:59.475Z,58.80
2018-04-29T05:43:31.188Z,59.20
2018-04-29T05:45:03.002Z,60.60
2018-04-29T05:46:34.816Z,52.80
2018-04-29T05:48:06.779Z,61.40
2018-04-29T05:49:38.442Z,58.70
2018-04-29T05:51:10.260Z,58.40
2018-04-29T05:52:42.068Z,56.50
2018-04-29T05:54:14.132Z,53.20
2018-04-29T05:55:45.696Z,55.60
2018-04-29T05:57:17.509Z,55.20
2018-04-29T05:58:49.327Z,52.70
2018-04-29T06:00:21.287Z,49.80
2018-04-29T06:01:52.949Z,49.40
2018-04-29T06:03:24.762Z,49.60
2018-04-29T06:04:56.577Z,52.30
2018-04-29T06:06:28.437Z,48.90
2018-04-29T06:08:00.204Z,49.50
2018-04-29T06:09:32.018Z,51.50
2018-04-29T06:11:03.831Z,51.90
2018-04-29T06:12:35.644Z,49.50
2018-04-29T06:14:07.479Z,49.30
2018-04-29T06:15:39.274Z,48.70
2018-04-29T06:17:11.085Z,47.00
2018-04-29T06:18:42.999Z,49.60
2018-04-29T06:20:14.712Z,46.60
2018-04-29T06:21:46.526Z,50.10
2018-04-29T06:23:18.341Z,46.60
2018-04-29T06:24:50.403Z,49.40
2018-04-29T06:26:21.967Z,48.60
2018-04-29T06:27:53.781Z,48.60
2018-04-29T06:29:25.594Z,47.50
2018-04-29T06:30:57.409Z,49.30
2018-04-29T06:32:29.223Z,47.90
2018-04-29T06:34:01.036Z,46.90
2018-04-29T06:35:32.822Z,43.80
2018-04-29T06:37:04.735Z,46.90
2018-04-29T06:38:36.451Z,45.40
2018-04-29T06:40:08.260Z,47.60
2018-04-29T06:41:40.075Z,44.40
2018-04-29T06:43:11.887Z,44.80
2018-04-29T06:44:43.702Z,40.90
2018-04-29T06:46:15.515Z,44.10
2018-04-29T06:47:47.330Z,44.40
2018-04-29T06:49:19.143Z,43.70
2018-04-29T06:50:50.958Z,45.20
2018-04-29T06:52:22.769Z,41.90
2018-04-29T06:53:54.583Z,42.40
2018-04-29T06:55:26.746Z,45.10
2018-04-29T06:56:58.209Z,45.00
2018-04-29T06:58:30.025Z,43.50
2018-04-29T07:00:01.838Z,44.40
2018-04-29T07:01:33.651Z,43.40
2018-04-29T07:03:05.463Z,43.70
2018-04-29T07:04:37.274Z,44.90
2018-04-29T07:06:09.089Z,46.30
2018-04-29T07:07:40.902Z,44.70
2018-04-29T07:09:12.715Z,45.80
2018-04-29T07:10:44.527Z,47.10
2018-04-29T07:12:16.341Z,47.70
2018-04-29T07:13:48.254Z,47.20
2018-04-29T07:15:19.967Z,49.60
2018-04-29T07:16:51.782Z,49.30
2018-04-29T07:18:23.592Z,50.60
2018-04-29T07:19:55.433Z,46.70
2018-04-29T07:21:27.217Z,46.30
2018-04-29T07:22:59.033Z,45.80
2018-04-29T07:24:30.844Z,47.50
2018-04-29T07:26:02.742Z,46.90
2018-04-29T07:27:34.470Z,45.30
2018-04-29T07:29:06.283Z,46.10
2018-04-29T07:30:38.100Z,47.80
2018-04-29T07:32:10.009Z,46.20
2018-04-29T07:33:41.725Z,44.40
2018-04-29T07:35:13.535Z,48.00
2018-04-29T07:36:45.347Z,49.10
2018-04-29T07:38:17.163Z,49.80
2018-04-29T07:39:49.055Z,47.20
2018-04-29T07:41:20.788Z,50.10
2018-04-29T07:42:52.601Z,48.40
2018-04-29T07:44:24.421Z,47.80
2018-04-29T07:45:56.227Z,48.40
2018-04-29T07:47:28.040Z,49.10
2018-04-29T07:48:59.852Z,48.60
2018-04-29T07:50:31.967Z,47.30
2018-04-29T07:52:03.563Z,47.80
2018-04-29T07:53:35.291Z,47.50
2018-04-29T07:55:07.104Z,44.50
2018-04-29T07:56:39.172Z,43.50
2018-04-29T07:58:10.731Z,42.90
2018-04-29T07:59:42.544Z,38.30
2018-04-29T08:01:14.356Z,39.00
2018-04-29T08:02:46.169Z,37.20
2018-04-29T08:04:17.982Z,33.90
2018-04-29T08:05:49.795Z,31.80
2018-04-29T08:07:21.610Z,32.20
2018-04-29T08:08:53.521Z,32.50
2018-04-29T08:10:25.234Z,30.80
2018-04-29T08:11:57.047Z,28.80
2018-04-29T08:13:28.861Z,27.20
2018-04-29T08:15:00.674Z,26.00
2018-04-29T08:16:32.485Z,24.20
2018-04-29T08:18:04.297Z,25.10
2018-04-29T08:19:36.115Z,23.10
2018-04-29T08:21:07.923Z,24.40
2018-04-29T08:22:39.785Z,23.70
2018-04-29T08:24:11.549Z,26.00
2018-04-29T08:25:43.362Z,24.90
2018-04-29T08:27:15.527Z,24.50
2018-04-29T08:28:46.989Z,25.20
2018-04-29T08:30:18.800Z,21.60
2018-04-29T08:31:50.612Z,22.90
2018-04-29T08:33:22.429Z,25.10
2018-04-29T08:34:54.238Z,25.20
2018-04-29T08:36:26.052Z,22.80
2018-04-29T08:37:57.865Z,24.60
2018-04-29T08:39:29.678Z,23.50
2018-04-29T08:41:01.525Z,25.00
2018-04-29T08:42:33.302Z,26.40
2018-04-29T08:44:05.116Z,27.10
2018-04-29T08:45:37.033Z,25.70
2018-04-29T08:47:08.741Z,25.60
2018-04-29T08:48:40.626Z,25.00
2018-04-29T08:50:12.375Z,26.50
2018-04-29T08:51:44.330Z,25.50
2018-04-29T08:53:15.994Z,26.80
2018-04-29T08:54:47.807Z,26.90
2018-04-29T08:56:19.619Z,25.80
2018-04-29T08:57:51.690Z,26.80
2018-04-29T08:59:23.244Z,26.30
2018-04-29T09:00:55.058Z,25.40
2018-04-29T09:02:26.873Z,24.00
2018-04-29T09:03:58.914Z,23.90
2018-04-29T09:05:30.497Z,24.00
2018-04-29T09:07:02.310Z,25.40
2018-04-29T09:08:34.122Z,24.60
2018-04-29T09:10:05.939Z,22.90
2018-04-29T09:11:37.749Z,23.30
2018-04-29T09:13:09.562Z,21.50
2018-04-29T09:14:41.375Z,23.80
2018-04-29T09:16:13.340Z,22.10
2018-04-29T09:17:45.000Z,20.00
2018-04-29T09:19:16.817Z,22.90
2018-04-29T09:20:48.631Z,21.60
2018-04-29T09:22:20.943Z,21.90
2018-04-29T09:23:52.254Z,21.50
2018-04-29T09:25:24.066Z,22.40
2018-04-29T09:26:55.879Z,24.00
2018-04-29T09:28:27.941Z,23.30
2018-04-29T09:29:59.507Z,23.00
2018-04-29T09:31:31.317Z,24.00
2018-04-29T09:33:03.130Z,23.10
2018-04-29T09:34:34.942Z,23.60
2018-04-29T09:36:06.756Z,24.00
2018-04-29T09:37:38.569Z,23.20
2018-04-29T09:39:10.389Z,22.40
2018-04-29T09:40:42.296Z,24.30
2018-04-29T09:42:14.009Z,23.20
2018-04-29T09:43:45.823Z,24.40
2018-04-29T09:45:17.635Z,23.00
2018-04-29T09:46:49.448Z,23.70
2018-04-29T09:48:21.265Z,22.40
2018-04-29T09:49:53.083Z,22.60
2018-04-29T09:51:24.887Z,23.10
2018-04-29T09:52:56.702Z,24.90
2018-04-29T09:54:28.515Z,21.50
2018-04-29T09:56:00.333Z,23.40
2018-04-29T09:57:32.141Z,23.00
2018-04-29T09:59:04.055Z,22.50
2018-04-29T10:00:35.768Z,24.10
2018-04-29T10:02:07.582Z,22.40
2018-04-29T10:03:39.396Z,23.20
2018-04-29T10:05:11.209Z,23.00
2018-04-29T10:06:43.025Z,24.10
2018-04-29T10:08:14.835Z,24.80
2018-04-29T10:09:46.648Z,23.70
2018-04-29T10:11:18.463Z,24.00
2018-04-29T10:12:50.276Z,22.30
2018-04-29T10:14:22.091Z,23.00
2018-04-29T10:15:53.905Z,22.50
2018-04-29T10:17:25.818Z,21.90
2018-04-29T10:18:57.531Z,23.00
2018-04-29T10:20:29.346Z,21.60
2018-04-29T10:22:01.163Z,21.90
2018-04-29T10:23:33.125Z,21.90
2018-04-29T10:25:04.787Z,20.80
2018-04-29T10:26:36.628Z,21.20
2018-04-29T10:28:08.417Z,21.30
2018-04-29T10:29:40.226Z,21.20
2018-04-29T10:31:12.040Z,20.00
2018-04-29T10:32:43.939Z,19.50
2018-04-29T10:34:15.669Z,20.20
2018-04-29T10:35:47.583Z,19.30
2018-04-29T10:37:19.296Z,19.30
2018-04-29T10:38:51.111Z,20.10
2018-04-29T10:40:22.925Z,19.00
2018-04-29T10:41:55.330Z,18.50
2018-04-29T10:43:26.556Z,20.00
2018-04-29T10:44:58.369Z,20.80
2018-04-29T10:46:30.181Z,21.10
2018-04-29T10:48:02.150Z,19.80
2018-04-29T10:49:33.808Z,19.30
2018-04-29T10:51:05.626Z,19.40
2018-04-29T10:52:37.442Z,21.70
2018-04-29T10:54:09.353Z,20.40
2018-04-29T10:55:41.066Z,20.50
2018-04-29T10:57:12.940Z,22.20
2018-04-29T10:58:44.738Z,19.50
2018-04-29T11:00:16.511Z,20.10
2018-04-29T11:01:48.325Z,20.10
2018-04-29T11:03:20.140Z,20.00
2018-04-29T11:04:51.954Z,19.40
2018-04-29T11:06:23.869Z,19.30
2018-04-29T11:07:55.587Z,19.20
2018-04-29T11:09:27.398Z,20.30
2018-04-29T11:10:59.213Z,20.00
2018-04-29T11:12:31.129Z,19.60
2018-04-29T11:14:02.842Z,20.30
2018-04-29T11:15:34.658Z,20.50
2018-04-29T11:17:06.475Z,19.40
2018-04-29T11:18:38.294Z,20.80
2018-04-29T11:20:10.104Z,19.70
2018-04-29T11:21:41.919Z,19.30
2018-04-29T11:23:13.738Z,20.20
2018-04-29T11:24:45.701Z,18.10
2018-04-29T11:26:17.365Z,19.70
2018-04-29T11:27:49.181Z,19.20
2018-04-29T11:29:21.198Z,18.30
2018-04-29T11:30:53.113Z,19.70
2018-04-29T11:32:24.629Z,19.20
2018-04-29T11:33:56.527Z,18.80
2018-04-29T11:35:28.260Z,18.90
2018-04-29T11:37:00.078Z,18.20
2018-04-29T11:38:31.894Z,19.00
2018-04-29T11:40:03.709Z,18.10
2018-04-29T11:41:35.527Z,18.10
2018-04-29T11:43:07.342Z,18.20
2018-04-29T11:44:39.156Z,19.50
2018-04-29T11:46:11.184Z,19.70
2018-04-29T11:47:42.789Z,19.90
2018-04-29T11:49:15.108Z,19.70
2018-04-29T11:50:46.421Z,18.70
2018-04-29T11:52:18.236Z,18.80
2018-04-29T11:53:50.054Z,20.10
2018-04-29T11:55:21.869Z,18.40
2018-04-29T11:56:53.684Z,19.20
2018-04-29T11:58:25.501Z,18.00
2018-04-29T11:59:57.319Z,18.00
2018-04-29T12:01:29.135Z,18.20
2018-04-29T12:04:32.975Z,18.40
2018-04-29T12:06:04.592Z,17.40
2018-04-29T12:07:36.957Z,19.50
2018-04-29T12:09:08.220Z,17.10
2018-04-29T12:10:40.036Z,17.80
2018-04-29T12:12:11.884Z,17.70
2018-04-29T12:13:43.673Z,18.40
2018-04-29T12:15:15.489Z,18.00
2018-04-29T12:16:47.305Z,15.50
2018-04-29T12:18:19.126Z,17.10
2018-04-29T12:19:51.090Z,18.20
2018-04-29T12:22:54.575Z,16.40
2018-04-29T12:24:26.454Z,16.20
2018-04-29T12:25:58.310Z,17.30
2018-04-29T12:27:30.026Z,16.10
2018-04-29T12:29:01.842Z,18.00
2018-04-29T12:30:33.662Z,16.60
2018-04-29T12:32:05.479Z,16.60
2018-04-29T12:33:37.325Z,17.40
2018-04-29T12:35:09.114Z,16.00
2018-04-29T12:36:40.931Z,17.00
2018-04-29T12:39:44.880Z,18.40
2018-04-29T12:41:16.385Z,17.90
2018-04-29T12:42:48.201Z,18.00
2018-04-29T12:44:20.028Z,17.50
2018-04-29T12:45:51.940Z,17.60
2018-04-29T12:47:23.656Z,17.60
2018-04-29T12:50:27.295Z,17.80
2018-04-29T12:51:59.262Z,17.30
2018-04-29T12:53:30.948Z,17.30
2018-04-29T12:56:34.568Z,16.10
2018-04-29T12:58:06.915Z,16.00
2018-04-29T12:59:38.207Z,17.00
2018-04-29T13:01:10.029Z,17.10
2018-04-29T13:02:41.881Z,17.80
2018-04-29T13:04:13.765Z,16.30
2018-04-29T13:05:45.489Z,16.90
2018-04-29T13:07:17.307Z,17.60
2018-04-29T13:08:49.328Z,17.00
2018-04-29T13:10:20.952Z,18.70
2018-04-29T13:13:24.589Z,17.70
2018-04-29T13:14:56.940Z,16.10
2018-04-29T13:16:28.230Z,18.40
2018-04-29T13:18:00.052Z,17.20
2018-04-29T13:19:31.874Z,18.40
2018-04-29T13:21:03.694Z,18.00
2018-04-29T13:22:36.015Z,19.00
2018-04-29T13:24:07.336Z,18.80
2018-04-29T13:25:39.157Z,17.80
2018-04-29T13:27:11.180Z,18.70
2018-04-29T13:28:43.105Z,17.40
2018-04-29T13:30:14.622Z,17.50
2018-04-29T13:31:47.581Z,16.90
2018-04-29T13:33:18.570Z,16.50
2018-04-29T13:34:51.023Z,16.40
2018-04-29T13:36:22.419Z,16.60
2018-04-29T13:37:53.735Z,15.90
2018-04-29T13:40:57.634Z,17.70
2018-04-29T13:44:01.028Z,17.90
2018-04-29T13:47:05.180Z,17.20
2018-04-29T13:48:36.495Z,15.80
2018-04-29T13:50:08.319Z,16.20
2018-04-29T13:51:40.447Z,17.20
2018-04-29T13:53:11.966Z,17.10
2018-04-29T13:54:43.790Z,17.90
2018-04-29T13:56:15.613Z,17.00
2018-04-29T13:57:47.435Z,16.50
2018-04-29T13:59:19.563Z,17.20
2018-04-29T14:00:51.330Z,16.10
2018-04-29T14:02:23.436Z,15.30
2018-04-29T14:03:55.262Z,15.90
2018-04-29T14:05:26.858Z,15.60
2018-04-29T14:06:58.377Z,15.30
2018-04-29T14:08:30.202Z,15.00
2018-04-29T14:10:02.026Z,15.60
2018-04-29T14:11:33.947Z,16.30
2018-04-29T14:13:05.672Z,15.70
2018-04-29T14:14:37.499Z,14.60
2018-04-29T14:16:09.397Z,16.50
2018-04-29T14:19:13.078Z,15.60
2018-04-29T14:20:44.816Z,15.10
2018-04-29T14:22:17.002Z,16.20
2018-04-29T14:23:48.443Z,16.60
2018-04-29T14:25:20.266Z,16.30
2018-04-29T14:26:52.396Z,15.20
2018-04-29T14:28:23.917Z,15.10
2018-04-29T14:29:55.741Z,14.60
2018-04-29T14:31:27.568Z,15.90
2018-04-29T14:32:59.395Z,17.60
2018-04-29T14:34:31.218Z,15.40
2018-04-29T14:36:03.040Z,16.20
2018-04-29T14:37:34.966Z,16.70
2018-04-29T14:40:38.516Z,17.00
2018-04-29T14:43:42.166Z,16.40
2018-04-29T14:45:14.295Z,16.80
2018-04-29T14:46:45.819Z,16.70
2018-04-29T14:48:17.643Z,15.80
2018-04-29T14:49:49.471Z,16.40
2018-04-29T14:51:21.294Z,16.40
2018-04-29T14:52:53.119Z,15.10
2018-04-29T14:54:24.951Z,14.80
2018-04-29T14:55:56.917Z,15.20
2018-04-29T14:57:28.902Z,15.10
2018-04-29T14:59:00.930Z,14.20
2018-04-29T15:02:04.076Z,14.90
2018-04-29T15:03:35.902Z,13.90
2018-04-29T15:05:07.729Z,14.40
2018-04-29T15:06:39.556Z,14.30
2018-04-29T15:08:11.381Z,15.70
2018-04-29T15:09:43.206Z,14.30
2018-04-29T15:11:15.032Z,14.80
2018-04-29T15:12:46.859Z,14.70
2018-04-29T15:14:19.536Z,14.70
2018-04-29T15:17:22.336Z,12.80
2018-04-29T15:18:54.162Z,13.20
2018-04-29T15:20:26.143Z,13.40
2018-04-29T15:21:57.814Z,11.90
2018-04-29T15:23:29.639Z,11.80
2018-04-29T15:25:01.466Z,12.80
2018-04-29T15:26:33.290Z,13.30
2018-04-29T15:28:05.117Z,12.90
2018-04-29T15:29:36.943Z,13.00
2018-04-29T15:31:08.769Z,11.10
2018-04-29T15:32:40.698Z,12.00
2018-04-29T15:34:12.421Z,11.80
2018-04-29T15:35:44.247Z,10.00
2018-04-29T15:37:16.072Z,12.30
2018-04-29T15:38:47.900Z,12.80
2018-04-29T15:40:19.728Z,12.80
2018-04-29T15:41:51.552Z,13.00
2018-04-29T15:43:23.379Z,13.20
2018-04-29T15:44:55.305Z,12.00
2018-04-29T15:46:27.066Z,13.20
2018-04-29T15:47:58.862Z,12.10
2018-04-29T15:49:30.687Z,11.20
2018-04-29T15:51:03.065Z,11.80
2018-04-29T15:52:34.342Z,10.70
2018-04-29T15:54:06.168Z,10.00
2018-04-29T15:55:37.995Z,9.30
2018-04-29T15:57:09.825Z,9.20
2018-04-29T15:58:41.650Z,9.40
2018-04-29T16:00:13.475Z,9.30
2018-04-29T16:01:45.306Z,9.90
2018-04-29T16:03:17.130Z,9.90
2018-04-29T16:04:48.957Z,10.30
2018-04-29T16:06:20.785Z,9.70
2018-04-29T16:07:52.609Z,9.40
2018-04-29T16:09:24.535Z,10.00
2018-04-29T16:10:56.263Z,10.10
2018-04-29T16:12:28.092Z,10.60
2018-04-29T16:17:46.380Z,9.90
2018-04-29T16:18:59.001Z,9.20
2018-04-29T16:20:30.828Z,9.50
2018-04-29T16:22:02.657Z,9.00
2018-04-29T16:23:34.487Z,9.30
2018-04-29T16:25:06.321Z,9.10
2018-04-29T16:26:38.250Z,8.70
2018-04-29T16:28:09.975Z,8.50
2018-04-29T16:29:41.799Z,9.50
2018-04-29T16:31:13.628Z,9.00
2018-04-29T16:32:45.453Z,9.70
2018-04-29T16:34:17.280Z,8.60
2018-04-29T16:35:49.108Z,8.30
2018-04-29T16:37:20.935Z,8.00
2018-04-29T16:38:52.762Z,8.20
2018-04-29T16:40:24.589Z,7.50
2018-04-29T16:41:56.418Z,8.00
2018-04-29T16:43:28.297Z,7.30
2018-04-29T16:45:00.170Z,7.00
2018-04-29T16:46:31.896Z,7.80
2018-04-29T16:48:03.729Z,8.00
2018-04-29T16:49:35.548Z,8.10
2018-04-29T16:51:07.375Z,7.70
2018-04-29T16:52:39.199Z,7.90
2018-04-29T16:54:11.024Z,8.30
2018-04-29T16:55:42.849Z,7.90
2018-04-29T16:57:14.674Z,8.00
2018-04-29T16:58:46.499Z,7.60
2018-04-29T17:00:18.329Z,6.70
2018-04-29T17:01:50.152Z,7.70
2018-04-29T17:03:22.331Z,7.20
2018-04-29T17:04:53.841Z,7.00
2018-04-29T17:06:25.637Z,7.10
2018-04-29T17:07:57.453Z,7.10
2018-04-29T17:09:29.360Z,6.80
2018-04-29T17:11:01.105Z,6.40
2018-04-29T17:12:32.931Z,8.30
2018-04-29T17:14:04.758Z,7.30
2018-04-29T17:15:36.584Z,7.00
2018-04-29T17:17:08.475Z,6.40
2018-04-29T17:18:40.239Z,6.20
2018-04-29T17:20:12.063Z,5.90
2018-04-29T17:21:43.990Z,6.30
2018-04-29T17:23:15.716Z,5.70
2018-04-29T17:24:47.542Z,5.70
2018-04-29T17:26:19.368Z,6.10
2018-04-29T17:27:51.192Z,6.20
2018-04-29T17:29:23.020Z,6.60
2018-04-29T17:30:54.850Z,6.50
2018-04-29T17:32:26.665Z,6.40
2018-04-29T17:33:58.739Z,6.20
2018-04-29T17:35:30.315Z,6.40
2018-04-29T17:37:02.137Z,6.50
2018-04-29T17:38:33.962Z,6.30
2018-04-29T17:40:06.086Z,6.60
2018-04-29T17:41:37.609Z,6.40
2018-04-29T17:43:09.454Z,5.80
2018-04-29T17:44:41.257Z,5.80
2018-04-29T17:46:13.082Z,6.10
2018-04-29T17:47:44.907Z,5.90
2018-04-29T17:49:16.733Z,6.20
2018-04-29T17:50:48.558Z,6.20
2018-04-29T17:52:20.486Z,6.00
2018-04-29T17:53:52.207Z,7.00
2018-04-29T17:55:24.032Z,6.20
2018-04-29T17:56:55.856Z,6.50
2018-04-29T17:58:27.881Z,6.60
2018-04-29T17:59:59.505Z,6.10
2018-04-29T18:01:31.417Z,6.60
2018-04-29T18:03:03.157Z,6.70
2018-04-29T18:04:35.229Z,6.90
2018-04-29T18:06:06.802Z,7.10
2018-04-29T18:07:38.626Z,6.40
2018-04-29T18:09:10.451Z,6.50
2018-04-29T18:10:42.276Z,7.40
2018-04-29T18:12:14.100Z,7.00
2018-04-29T18:13:45.928Z,6.30
2018-04-29T18:15:17.750Z,6.40
2018-04-29T18:16:49.679Z,6.10
2018-04-29T18:18:21.401Z,6.00
2018-04-29T18:19:53.226Z,6.10
2018-04-29T18:21:25.051Z,7.00
2018-04-29T18:22:57.029Z,6.00
2018-04-29T18:24:28.710Z,5.70
2018-04-29T18:26:00.526Z,5.80
2018-04-29T18:27:32.352Z,6.60
2018-04-29T18:29:04.177Z,5.50
2018-04-29T18:30:36.002Z,5.70
2018-04-29T18:32:07.828Z,6.20
2018-04-29T18:33:39.651Z,5.90
2018-04-29T18:35:11.577Z,6.30
2018-04-29T18:36:43.300Z,6.50
2018-04-29T18:38:15.129Z,6.30
2018-04-29T18:39:46.962Z,6.90
2018-04-29T18:41:18.775Z,6.50
2018-04-29T18:42:50.600Z,7.30
2018-04-29T18:44:22.425Z,6.60
2018-04-29T18:45:54.253Z,6.90
2018-04-29T18:47:26.377Z,6.60
2018-04-29T18:48:57.897Z,7.10
2018-04-29T18:50:29.788Z,6.30
2018-04-29T18:52:01.545Z,7.30
2018-04-29T18:53:33.469Z,7.00
2018-04-29T18:55:05.193Z,6.80
2018-04-29T18:58:08.840Z,6.40
2018-04-29T18:59:40.967Z,7.00
2018-04-29T19:01:12.487Z,6.60
2018-04-29T19:02:44.311Z,6.40
2018-04-29T19:04:16.133Z,6.30
2018-04-29T19:05:47.959Z,7.20
2018-04-29T19:07:19.780Z,7.30
2018-04-29T19:08:51.602Z,6.10
2018-04-29T19:10:23.427Z,7.30
2018-04-29T19:13:27.171Z,7.00
2018-04-29T19:14:59.097Z,7.00
2018-04-29T19:16:30.717Z,7.00
2018-04-29T19:18:02.541Z,7.00
2018-04-29T19:19:35.144Z,6.90
2018-04-29T19:21:06.184Z,7.10
2018-04-29T19:22:38.008Z,8.20
2018-04-29T19:24:10.041Z,10.50
2018-04-29T19:25:41.653Z,11.30
2018-04-29T19:27:13.477Z,10.40
2018-04-29T19:28:45.300Z,10.30
2018-04-29T19:30:17.122Z,11.80
2018-04-29T19:31:49.044Z,11.50
2018-04-29T19:33:21.070Z,12.10
2018-04-29T19:34:52.588Z,12.20
2018-04-29T19:36:24.410Z,12.10
2018-04-29T19:37:56.235Z,11.90
2018-04-29T19:39:28.054Z,12.50
2018-04-29T19:40:59.876Z,11.90
2018-04-29T19:42:31.698Z,11.00
2018-04-29T19:44:03.519Z,11.60
2018-04-29T19:45:35.339Z,11.50
2018-04-29T19:47:07.160Z,12.00
2018-04-29T19:48:38.981Z,12.10
2018-04-29T19:50:10.902Z,12.60
2018-04-29T19:51:42.623Z,12.10
2018-04-29T19:53:14.444Z,13.30
2018-04-29T19:54:46.263Z,13.20
2018-04-29T19:56:18.087Z,13.00
2018-04-29T19:57:49.904Z,13.30
2018-04-29T19:59:21.724Z,13.50
2018-04-29T20:00:53.544Z,14.10
2018-04-29T20:02:25.364Z,13.60
2018-04-29T20:03:57.185Z,14.10
2018-04-29T20:05:29.004Z,15.30
2018-04-29T20:07:00.823Z,13.50
2018-04-29T20:08:32.746Z,15.10
2018-04-29T20:10:04.461Z,15.10
2018-04-29T20:11:36.339Z,16.30
2018-04-29T20:13:08.099Z,16.30
2018-04-29T20:14:39.919Z,16.90
2018-04-29T20:16:11.737Z,15.10